createdAt,value
2019-02-12T00:04:36.479Z,2.00
2019-02-12T00:09:42.765Z,2.00
2019-02-12T00:14:49.182Z,2.00
2019-02-12T00:19:55.435Z,2.00
2019-02-12T00:25:01.710Z,2.00
2019-02-12T00:30:10.764Z,2.00
2019-02-12T00:35:16.995Z,1.90
2019-02-12T00:40:23.262Z,1.90
2019-02-12T00:45:29.584Z,1.90
2019-02-12T00:50:35.914Z,1.80
2019-02-12T00:55:42.167Z,1.80
2019-02-12T01:00:48.435Z,1.80
2019-02-12T01:05:54.896Z,1.80
2019-02-12T01:11:02.962Z,1.80
2019-02-12T01:16:09.423Z,1.80
2019-02-12T01:21:15.851Z,1.80
2019-02-12T01:26:22.122Z,1.70
2019-02-12T01:31:30.235Z,1.70
2019-02-12T01:36:36.484Z,1.70
2019-02-12T01:41:42.711Z,1.70
2019-02-12T01:46:48.966Z,1.80
2019-02-12T01:51:55.220Z,1.70
2019-02-12T01:57:01.547Z,1.80
2019-02-12T02:02:07.855Z,1.80
2019-02-12T02:07:14.111Z,1.70
2019-02-12T02:12:20.338Z,1.80
2019-02-12T02:17:26.549Z,1.70
2019-02-12T02:22:32.787Z,1.70
2019-02-12T02:27:39.261Z,1.70
2019-02-12T02:32:45.521Z,1.60
2019-02-12T02:37:53.572Z,1.60
2019-02-12T02:42:59.841Z,1.50
2019-02-12T02:48:06.101Z,1.50
2019-02-12T02:53:12.389Z,1.50
2019-02-12T02:58:18.586Z,1.50
2019-02-12T03:03:24.891Z,1.50
2019-02-12T03:08:31.094Z,1.50
2019-02-12T03:13:37.401Z,1.50
2019-02-12T03:18:43.709Z,1.50
2019-02-12T03:23:49.970Z,1.50
2019-02-12T03:28:56.253Z,1.50
2019-02-12T03:34:02.453Z,1.50
2019-02-12T03:39:08.730Z,1.40
2019-02-12T03:44:14.959Z,1.40
2019-02-12T03:49:21.182Z,1.40
2019-02-12T03:54:27.559Z,1.40
2019-02-12T03:59:34.244Z,1.40
2019-02-12T04:04:40.628Z,1.40
2019-02-12T04:09:46.871Z,1.30
2019-02-12T04:14:53.142Z,1.20
2019-02-12T04:19:59.418Z,1.10
2019-02-12T04:25:05.810Z,1.10
2019-02-12T04:30:12.025Z,1.10
2019-02-12T04:35:18.287Z,1.10
2019-02-12T04:40:24.505Z,1.10
2019-02-12T04:45:30.706Z,1.10
2019-02-12T04:50:36.995Z,1.00
2019-02-12T04:55:43.181Z,1.00
2019-02-12T05:00:49.518Z,0.90
2019-02-12T05:05:55.811Z,1.00
2019-02-12T05:11:07.544Z,0.90
2019-02-12T05:16:13.772Z,0.90
2019-02-12T05:21:20.111Z,0.90
2019-02-12T05:26:26.310Z,0.90
2019-02-12T05:31:32.519Z,1.00
2019-02-12T05:36:38.755Z,0.90
2019-02-12T05:41:45.065Z,0.90
2019-02-12T05:46:51.399Z,0.80
2019-02-12T05:51:57.701Z,0.80
2019-02-12T05:57:05.767Z,0.90
2019-02-12T06:02:12.128Z,0.90
2019-02-12T06:07:18.452Z,0.80
2019-02-12T06:12:24.733Z,0.80
2019-02-12T06:17:31.034Z,0.80
2019-02-12T06:22:37.241Z,0.90
2019-02-12T06:27:43.464Z,0.80
2019-02-12T06:32:49.739Z,0.90
2019-02-12T06:37:55.978Z,0.80
2019-02-12T06:43:02.320Z,0.90
2019-02-12T06:48:08.550Z,0.90
2019-02-12T06:53:15.340Z,0.90
2019-02-12T06:58:21.658Z,1.00
2019-02-12T07:03:49.527Z,1.00
2019-02-12T07:09:21.472Z,1.10
2019-02-12T07:15:03.669Z,1.00
2019-02-12T07:20:23.194Z,1.00
2019-02-12T07:25:59.231Z,1.10
2019-02-12T07:31:34.666Z,1.10
2019-02-12T07:37:24.344Z,1.20
2019-02-12T07:43:07.017Z,1.20
2019-02-12T07:48:56.501Z,1.40
2019-02-12T07:54:29.682Z,1.50
2019-02-12T07:59:54.239Z,1.60
2019-02-12T08:05:44.108Z,1.60
2019-02-12T08:11:27.052Z,1.70
2019-02-12T08:17:13.273Z,1.80
2019-02-12T08:22:57.104Z,2.00
2019-02-12T08:28:27.202Z,2.00
2019-02-12T08:34:04.470Z,2.20
2019-02-12T08:39:43.421Z,2.30
2019-02-12T08:45:14.144Z,2.40
2019-02-12T08:51:04.385Z,2.40
2019-02-12T08:56:24.950Z,2.50
2019-02-12T09:02:20.762Z,2.50
2019-02-12T09:07:57.116Z,2.60
2019-02-12T09:13:36.914Z,2.60
2019-02-12T09:19:03.408Z,2.50
2019-02-12T09:24:25.888Z,2.50
2019-02-12T09:29:54.543Z,2.30
2019-02-12T09:36:05.879Z,2.50
2019-02-12T09:41:46.081Z,2.60
2019-02-12T09:47:23.974Z,2.40
2019-02-12T09:53:14.364Z,2.60
2019-02-12T09:59:04.542Z,2.80
2019-02-12T10:05:04.779Z,2.90
2019-02-12T10:10:45.672Z,2.90
2019-02-12T10:16:34.050Z,3.00
2019-02-12T10:22:06.976Z,3.00
2019-02-12T10:28:00.478Z,3.10
2019-02-12T10:33:06.771Z,3.20
2019-02-12T10:43:19.328Z,3.60
2019-02-12T10:48:25.740Z,3.60
2019-02-12T10:53:32.023Z,3.80
2019-02-12T10:58:38.307Z,3.90
2019-02-12T11:03:44.567Z,3.90
2019-02-12T11:08:50.993Z,4.10
2019-02-12T11:13:57.323Z,4.20
2019-02-12T11:19:03.590Z,4.20
2019-02-12T11:24:09.836Z,4.40
2019-02-12T11:29:17.104Z,4.40
2019-02-12T11:34:23.736Z,4.40
2019-02-12T11:39:30.035Z,4.50
2019-02-12T11:44:36.251Z,4.90
2019-02-12T11:49:43.550Z,5.00
2019-02-12T11:54:49.816Z,5.30
2019-02-12T11:59:56.090Z,5.20
2019-02-12T12:05:02.496Z,5.40
2019-02-12T12:10:10.023Z,5.60
2019-02-12T12:15:16.472Z,5.60
2019-02-12T12:20:22.759Z,5.50
2019-02-12T12:25:28.967Z,5.90
2019-02-12T12:30:35.222Z,6.00
2019-02-12T12:35:41.485Z,6.20
2019-02-12T12:40:47.707Z,6.50
2019-02-12T12:45:53.923Z,6.70
2019-02-12T12:51:00.141Z,6.70
2019-02-12T12:56:06.481Z,6.70
2019-02-12T13:01:12.763Z,6.80
2019-02-12T13:06:19.014Z,7.00
2019-02-12T13:11:26.628Z,7.30
2019-02-12T13:16:33.095Z,7.20
2019-02-12T13:21:39.390Z,7.50
2019-02-12T13:26:45.693Z,7.60
2019-02-12T13:31:51.925Z,7.70
2019-02-12T13:36:58.216Z,7.80
2019-02-12T13:42:04.436Z,7.70
2019-02-12T13:47:10.713Z,7.90
2019-02-12T13:52:17.039Z,8.10
2019-02-12T13:57:23.449Z,7.80
2019-02-12T14:02:29.703Z,7.90
2019-02-12T14:07:35.963Z,7.90
2019-02-12T14:12:42.175Z,7.70
2019-02-12T14:17:48.414Z,7.80
2019-02-12T14:22:54.649Z,7.80
2019-02-12T14:28:00.916Z,7.90
2019-02-12T14:33:07.140Z,7.90
2019-02-12T14:38:13.405Z,7.80
2019-02-12T14:43:19.677Z,7.80
2019-02-12T14:48:25.958Z,7.90
2019-02-12T14:53:32.207Z,8.20
2019-02-12T14:58:38.748Z,8.20
2019-02-12T15:03:45.012Z,8.10
2019-02-12T15:08:51.283Z,8.00
2019-02-12T15:13:57.678Z,8.20
2019-02-12T15:19:04.028Z,8.00
2019-02-12T15:24:11.243Z,7.90
2019-02-12T15:29:17.499Z,7.90
2019-02-12T15:34:23.746Z,7.80
2019-02-12T15:39:30.014Z,7.80
2019-02-12T15:44:36.270Z,7.70
2019-02-12T15:49:42.657Z,7.60
2019-02-12T15:54:48.935Z,7.60
2019-02-12T15:59:56.104Z,7.50
2019-02-12T16:05:02.384Z,7.50
2019-02-12T16:10:11.225Z,7.50
2019-02-12T16:15:21.112Z,7.50
2019-02-12T16:20:25.761Z,7.50
2019-02-12T16:25:33.842Z,7.40
2019-02-12T16:30:40.091Z,7.40
2019-02-12T16:35:46.302Z,7.40
2019-02-12T16:40:52.543Z,7.30
2019-02-12T16:46:05.309Z,7.30
2019-02-12T16:51:11.860Z,7.20
2019-02-12T16:56:18.145Z,7.10
2019-02-12T17:01:24.425Z,7.00
2019-02-12T17:06:30.688Z,6.90
2019-02-12T17:11:37.163Z,6.80
2019-02-12T17:16:43.524Z,6.70
2019-02-12T17:21:49.764Z,6.60
2019-02-12T17:26:56.090Z,6.50
2019-02-12T17:32:02.360Z,6.50
2019-02-12T17:37:08.765Z,6.40
2019-02-12T17:42:15.129Z,6.30
2019-02-12T17:47:21.544Z,6.30
2019-02-12T17:52:27.904Z,6.20
2019-02-12T17:57:34.279Z,6.10
2019-02-12T18:02:41.735Z,6.00
2019-02-12T18:07:48.085Z,6.00
2019-02-12T18:12:54.569Z,5.90
2019-02-12T18:18:01.178Z,5.90
2019-02-12T18:23:07.555Z,5.80
2019-02-12T18:28:13.978Z,5.70
2019-02-12T18:33:20.273Z,5.60
2019-02-12T18:38:26.527Z,5.60
2019-02-12T18:43:32.784Z,5.50
2019-02-12T18:48:39.204Z,5.40
2019-02-12T18:53:45.776Z,5.40
2019-02-12T18:58:54.820Z,5.30
2019-02-12T19:04:01.111Z,5.30
2019-02-12T19:09:12.679Z,5.20
2019-02-12T19:14:19.254Z,5.20
2019-02-12T19:19:25.709Z,5.00
2019-02-12T19:24:31.988Z,5.00
2019-02-12T19:29:38.242Z,4.90
2019-02-12T19:34:44.589Z,4.90
2019-02-12T19:39:50.860Z,4.90
2019-02-12T19:44:57.187Z,4.90
2019-02-12T19:50:04.919Z,4.90
2019-02-12T19:55:12.325Z,4.80
2019-02-12T20:00:20.032Z,4.90
2019-02-12T20:05:26.294Z,4.90
2019-02-12T20:10:32.763Z,4.90
2019-02-12T20:15:39.068Z,4.90
2019-02-12T20:20:45.362Z,4.90
2019-02-12T20:25:51.799Z,4.90
2019-02-12T20:30:58.164Z,4.90
2019-02-12T20:36:05.405Z,4.90
2019-02-12T20:41:11.709Z,4.90
2019-02-12T20:46:18.048Z,4.80
2019-02-12T20:51:24.350Z,4.80
2019-02-12T20:56:30.573Z,4.70
2019-02-12T21:01:36.845Z,4.80
2019-02-12T21:06:43.113Z,4.70
2019-02-12T21:11:49.413Z,4.70
2019-02-12T21:16:55.691Z,4.80
2019-02-12T21:22:02.044Z,4.70
2019-02-12T21:27:08.442Z,4.80
2019-02-12T21:32:14.828Z,4.70
2019-02-12T21:37:21.105Z,4.80
2019-02-12T21:42:27.440Z,4.80
2019-02-12T21:47:33.663Z,4.80
2019-02-12T21:52:39.880Z,4.70
2019-02-12T21:57:46.201Z,4.70
2019-02-12T22:02:52.491Z,4.70
2019-02-12T22:07:58.865Z,4.60
2019-02-12T22:13:06.112Z,4.60
2019-02-12T22:18:12.351Z,4.60
2019-02-12T22:23:18.554Z,4.50
2019-02-12T22:28:24.891Z,4.40
2019-02-12T22:33:31.097Z,4.40
2019-02-12T22:38:37.314Z,4.30
2019-02-12T22:43:43.602Z,4.30
2019-02-12T22:48:49.847Z,4.20
2019-02-12T22:53:56.149Z,4.10
2019-02-12T22:59:02.368Z,4.10
2019-02-12T23:04:08.610Z,4.00
2019-02-12T23:09:18.502Z,3.90
2019-02-12T23:14:24.753Z,3.90
2019-02-12T23:19:30.995Z,3.90
2019-02-12T23:24:37.224Z,3.90
2019-02-12T23:29:43.466Z,3.90
2019-02-12T23:34:56.965Z,3.90
2019-02-12T23:39:57.795Z,3.70
2019-02-12T23:45:04.136Z,3.70
2019-02-12T23:50:11.299Z,3.70
2019-02-12T23:55:17.536Z,3.60
